Flight Track Log - Related Links

Times and Time Zones

All times are in EST time to prevent confusion due to time zone crossing. See the SWA4198 flight status page for this flight to view local times or setup timezone preferences in your user account.


Time Position Orientation Groundspeed Altitude Reporting Facility
EST Latitude Longitude Course Direction KTS MPH feet Rate Location/Type
Wed 11:12:20 PM 40.7539 -112.0511 247° West 214 246 6,400  Level Salt Lake Center
Wed 11:13:12 PM 40.7875 -112.1081 308° West 234 269 8,800 2,656 Climbing Salt Lake Center
Wed 11:13:21 PM 40.7928 -112.1172 307° West 247 284 9,100 2,806 Climbing Salt Lake Center
Wed 11:14:14 PM 40.8372 -112.1689 319° Northwest 242 278 11,700 2,684 Climbing Salt Lake Center
Wed 11:15:15 PM 40.8983 -112.1656 North 269 310 14,200 2,098 Climbing Salt Lake Center
Wed 11:16:17 PM 40.9222 -112.0536 74° East 357 411 16,000 1,707 Climbing Salt Lake Center
Wed 11:17:18 PM 40.9156 -111.9164 94° East 385 443 17,700 1,463 Climbing Salt Lake Center
Wed 11:18:20 PM 40.9144 -111.7658 91° East 425 489 19,000 1,951 Climbing Salt Lake Center
Wed 11:19:21 PM 40.9125 -111.5736 91° East 444 511 21,700 2,195 Climbing Salt Lake Center
Wed 11:20:23 PM 40.9100 -111.4075 91° East 455 524 23,500 1,415 Climbing Salt Lake Center
Wed 11:21:24 PM 40.8900 -111.2306 98° East 489 563 24,600 1,220 Climbing Salt Lake Center
Wed 11:22:26 PM 40.8672 -111.0458 99° East 508 585 26,000 1,512 Climbing Salt Lake Center
Wed 11:23:27 PM 40.8442 -110.8575 99° East 520 598 27,700 1,610 Climbing Salt Lake Center
Wed 11:24:29 PM 40.8200 -110.6669 99° East 527 606 29,300 1,756 Climbing Salt Lake Center
Wed 11:25:30 PM 40.7939 -110.4525 99° East 529 609 31,300 1,672 Climbing Salt Lake Center
Wed 11:26:31 PM 40.7722 -110.2725 99° East 523 602 32,700 1,415 Climbing Salt Lake Center
Wed 11:27:33 PM 40.7478 -110.0842 100° East 517 595 34,200 1,610 Climbing Salt Lake Center
Wed 11:28:34 PM 40.7311 -109.8783 96° East 506 582 36,000 1,366 Climbing Salt Lake Center
Wed 11:29:36 PM 40.7192 -109.7047 95° East 497 572 37,000 488 Climbing Salt Lake Center
Wed 11:30:37 PM 40.7058 -109.5292 96° East 503 579 37,000  Level Salt Lake Center
Wed 11:31:39 PM 40.6897 -109.3136 96° East 526 605 37,000  Level Salt Lake Center
Wed 11:32:40 PM 40.6744 -109.1169 96° East 526 605 37,000  Level Salt Lake Center
Wed 11:33:13 PM 40.6664 -109.0039 95° East 526 605 37,000  Level Denver Center
Wed 11:34:14 PM 40.6514 -108.8197 96° East 526 605 37,000  Level Denver Center
Wed 11:35:15 PM 40.6364 -108.6339 96° East 528 608 37,000 -246 Level Denver Center
Wed 11:36:16 PM 40.6189 -108.4186 96° East 530 610 36,500 -738 Descending Denver Center
Wed 11:37:17 PM 40.6025 -108.2369 97° East 524 603 35,500 -738 Descending Denver Center
Wed 11:38:18 PM 40.5881 -108.0569 96° East 518 596 35,000 -246 Descending Denver Center
Wed 11:39:19 PM 40.5694 -107.8439 96° East 523 602 35,000  Level Denver Center
Wed 11:40:32 PM 40.5525 -107.6600 97° East 526 605 35,000  Level Denver Center
Wed 11:41:33 PM 40.5303 -107.4150 97° East 528 608 35,000  Level Denver Center
Wed 11:42:34 PM 40.5139 -107.2314 97° East 528 608 35,000  Level Denver Center
Wed 11:43:35 PM 40.5061 -107.0403 93° East 529 609 35,000  Level Denver Center
Wed 11:44:36 PM 40.4956 -106.8472 94° East 528 608 35,000 -197 Level Denver Center
Wed 11:45:37 PM 40.4853 -106.6547 94° East 527 606 34,600 -1,525 Descending Denver Center
Wed 11:46:38 PM 40.4739 -106.4686 95° East 523 602 31,900 -2,803 Descending Denver Center
Wed 11:47:39 PM 40.4603 -106.2542 95° East 526 605 28,900 -2,656 Descending Denver Center
Wed 11:48:40 PM 40.4506 -106.0617 94° East 512 589 26,500 -2,311 Descending Denver Center
Wed 11:49:41 PM 40.4278 -105.8856 100° East 493 567 24,200 -2,262 Descending Denver Center
Wed 11:50:42 PM 40.4011 -105.7142 101° East 482 555 21,900 -2,213 Descending Denver Center
Wed 11:51:43 PM 40.3758 -105.5558 102° East 451 519 19,700 -1,918 Descending Denver Center
Wed 11:52:44 PM 40.3506 -105.4017 102° East 434 499 18,000 -1,574 Descending Denver Center
Wed 11:53:45 PM 40.3322 -105.2611 100° East 396 456 16,500 -1,209 Descending Denver Center
Wed 11:54:58 PM 40.2928 -105.1283 111° Southeast 366 421 15,300 -1,567 Descending Denver Center
Wed 11:55:59 PM 40.2511 -104.9875 111° Southeast 362 417 13,000 -2,066 Descending Denver Center
Wed 11:57:00 PM 40.1783 -104.8867 133° Southeast 358 412 11,100 -1,426 Descending Denver Center
Wed 11:58:01 PM 40.1053 -104.8128 142° Southeast 334 384 10,100 -1,230 Descending Denver Center
Wed 11:59:02 PM 40.0436 -104.7497 142° Southeast 281 323 8,600 -1,328 Descending Denver Center
Thu 12:00:03 AM 39.9864 -104.6922 142° Southeast 257 296 7,400 -1,180 Descending Denver Center
Thu 12:01:04 AM 39.9344 -104.6864 175° South 186 214 6,200 -1,041 Descending Denver Center
Thu 12:02:04 AM 39.8897 -104.6869 181° South 164 189 5,300 -900 Descending Denver Center
Thu 12:04:00 AM 39.8617 -104.6732 180° South  Level Estimated

Login

Don't have an account? Register now (free) for customized features, flight alerts, and more!